sensor_id;sensor_type;location;lat;lon;timestamp;P1;durP1;ratioP1;P2;durP2;ratioP2
74241;SDS011;62599;49.146;10.426;2023-05-01T00:00:41;3.13;;;2.00;;
74241;SDS011;62599;49.146;10.426;2023-05-01T00:03:06;1.83;;;1.73;;
74241;SDS011;62599;49.146;10.426;2023-05-01T00:05:31;2.10;;;1.90;;
74241;SDS011;62599;49.146;10.426;2023-05-01T00:07:57;4.90;;;2.33;;
74241;SDS011;62599;49.146;10.426;2023-05-01T00:10:22;5.40;;;2.75;;
74241;SDS011;62599;49.146;10.426;2023-05-01T00:12:48;4.93;;;2.75;;
74241;SDS011;62599;49.146;10.426;2023-05-01T00:15:13;4.93;;;3.13;;
74241;SDS011;62599;49.146;10.426;2023-05-01T00:17:38;6.90;;;3.00;;
74241;SDS011;62599;49.146;10.426;2023-05-01T00:20:04;4.00;;;2.53;;
74241;SDS011;62599;49.146;10.426;2023-05-01T00:22:30;4.13;;;2.85;;
74241;SDS011;62599;49.146;10.426;2023-05-01T00:24:55;3.35;;;1.98;;
74241;SDS011;62599;49.146;10.426;2023-05-01T00:27:21;8.17;;;3.27;;
74241;SDS011;62599;49.146;10.426;2023-05-01T00:29:46;5.53;;;2.90;;
74241;SDS011;62599;49.146;10.426;2023-05-01T00:32:11;4.45;;;2.40;;
74241;SDS011;62599;49.146;10.426;2023-05-01T00:34:37;2.22;;;1.85;;
74241;SDS011;62599;49.146;10.426;2023-05-01T00:37:02;3.27;;;2.23;;
74241;SDS011;62599;49.146;10.426;2023-05-01T00:39:28;2.30;;;1.35;;
74241;SDS011;62599;49.146;10.426;2023-05-01T00:41:53;2.83;;;1.60;;
74241;SDS011;62599;49.146;10.426;2023-05-01T00:44:19;2.42;;;1.67;;
74241;SDS011;62599;49.146;10.426;2023-05-01T00:46:45;3.67;;;1.83;;
74241;SDS011;62599;49.146;10.426;2023-05-01T00:49:10;2.07;;;1.73;;
74241;SDS011;62599;49.146;10.426;2023-05-01T00:51:36;2.47;;;1.85;;
74241;SDS011;62599;49.146;10.426;2023-05-01T00:54:01;1.57;;;1.43;;
74241;SDS011;62599;49.146;10.426;2023-05-01T00:56:28;5.65;;;2.40;;
74241;SDS011;62599;49.146;10.426;2023-05-01T00:58:55;2.80;;;2.17;;
74241;SDS011;62599;49.146;10.426;2023-05-01T01:01:20;2.38;;;2.00;;
74241;SDS011;62599;49.146;10.426;2023-05-01T01:03:46;4.78;;;2.50;;
74241;SDS011;62599;49.146;10.426;2023-05-01T01:12:04;3.75;;;1.63;;
74241;SDS011;62599;49.146;10.426;2023-05-01T01:17:21;2.45;;;2.15;;
74241;SDS011;62599;49.146;10.426;2023-05-01T01:22:35;3.20;;;1.77;;
74241;SDS011;62599;49.146;10.426;2023-05-01T01:25:19;3.28;;;2.47;;
74241;SDS011;62599;49.146;10.426;2023-05-01T01:28:04;2.50;;;1.83;;
74241;SDS011;62599;49.146;10.426;2023-05-01T01:35:56;2.50;;;2.00;;
74241;SDS011;62599;49.146;10.426;2023-05-01T01:38:44;1.88;;;1.38;;
74241;SDS011;62599;49.146;10.426;2023-05-01T01:41:19;5.95;;;2.10;;
74241;SDS011;62599;49.146;10.426;2023-05-01T01:43:54;1.77;;;1.60;;
74241;SDS011;62599;49.146;10.426;2023-05-01T01:46:25;3.15;;;2.30;;
74241;SDS011;62599;49.146;10.426;2023-05-01T01:48:51;2.05;;;1.85;;
74241;SDS011;62599;49.146;10.426;2023-05-01T01:51:19;3.92;;;2.05;;
74241;SDS011;62599;49.146;10.426;2023-05-01T01:53:48;3.78;;;1.70;;
74241;SDS011;62599;49.146;10.426;2023-05-01T01:56:18;2.83;;;1.85;;
74241;SDS011;62599;49.146;10.426;2023-05-01T01:58:45;2.15;;;1.88;;
74241;SDS011;62599;49.146;10.426;2023-05-01T02:01:12;2.08;;;1.58;;
74241;SDS011;62599;49.146;10.426;2023-05-01T02:03:39;2.95;;;1.80;;
74241;SDS011;62599;49.146;10.426;2023-05-01T02:06:05;1.27;;;1.10;;
74241;SDS011;62599;49.146;10.426;2023-05-01T02:08:32;1.73;;;1.63;;
74241;SDS011;62599;49.146;10.426;2023-05-01T02:11:01;4.13;;;1.85;;
74241;SDS011;62599;49.146;10.426;2023-05-01T02:13:28;2.65;;;2.28;;
74241;SDS011;62599;49.146;10.426;2023-05-01T02:15:55;1.67;;;1.45;;
74241;SDS011;62599;49.146;10.426;2023-05-01T02:18:26;1.90;;;1.70;;
74241;SDS011;62599;49.146;10.426;2023-05-01T02:20:54;3.05;;;2.15;;
74241;SDS011;62599;49.146;10.426;2023-05-01T02:23:22;2.00;;;1.67;;
74241;SDS011;62599;49.146;10.426;2023-05-01T02:25:50;3.90;;;1.92;;
74241;SDS011;62599;49.146;10.426;2023-05-01T02:28:19;3.03;;;1.50;;
74241;SDS011;62599;49.146;10.426;2023-05-01T02:30:46;3.50;;;1.65;;
74241;SDS011;62599;49.146;10.426;2023-05-01T02:33:12;3.83;;;2.17;;
74241;SDS011;62599;49.146;10.426;2023-05-01T02:35:44;1.65;;;1.23;;
74241;SDS011;62599;49.146;10.426;2023-05-01T02:38:11;2.58;;;1.98;;
74241;SDS011;62599;49.146;10.426;2023-05-01T02:40:37;1.77;;;0.85;;
74241;SDS011;62599;49.146;10.426;2023-05-01T02:43:08;1.80;;;1.55;;
74241;SDS011;62599;49.146;10.426;2023-05-01T02:45:36;2.33;;;1.52;;
74241;SDS011;62599;49.146;10.426;2023-05-01T02:48:04;2.63;;;1.48;;
74241;SDS011;62599;49.146;10.426;2023-05-01T02:50:31;3.03;;;1.85;;
74241;SDS011;62599;49.146;10.426;2023-05-01T02:52:58;2.63;;;1.50;;
74241;SDS011;62599;49.146;10.426;2023-05-01T02:55:25;2.22;;;1.60;;
74241;SDS011;62599;49.146;10.426;2023-05-01T02:57:51;3.10;;;1.80;;
74241;SDS011;62599;49.146;10.426;2023-05-01T03:00:16;2.47;;;1.60;;
74241;SDS011;62599;49.146;10.426;2023-05-01T03:02:42;2.03;;;1.83;;
74241;SDS011;62599;49.146;10.426;2023-05-01T03:05:08;2.70;;;1.95;;
74241;SDS011;62599;49.146;10.426;2023-05-01T03:07:34;3.47;;;1.77;;
74241;SDS011;62599;49.146;10.426;2023-05-01T03:10:01;3.20;;;2.60;;
74241;SDS011;62599;49.146;10.426;2023-05-01T03:12:28;1.80;;;1.67;;
74241;SDS011;62599;49.146;10.426;2023-05-01T03:14:54;3.40;;;2.05;;
74241;SDS011;62599;49.146;10.426;2023-05-01T03:17:20;2.20;;;1.90;;
74241;SDS011;62599;49.146;10.426;2023-05-01T03:19:45;2.70;;;1.90;;
74241;SDS011;62599;49.146;10.426;2023-05-01T03:22:11;2.25;;;1.55;;
74241;SDS011;62599;49.146;10.426;2023-05-01T03:24:37;3.78;;;1.83;;
74241;SDS011;62599;49.146;10.426;2023-05-01T03:27:02;2.37;;;1.47;;
74241;SDS011;62599;49.146;10.426;2023-05-01T03:29:28;7.40;;;2.33;;
74241;SDS011;62599;49.146;10.426;2023-05-01T03:31:54;3.65;;;2.42;;
74241;SDS011;62599;49.146;10.426;2023-05-01T03:34:21;4.25;;;1.38;;
74241;SDS011;62599;49.146;10.426;2023-05-01T03:36:49;2.05;;;1.65;;
74241;SDS011;62599;49.146;10.426;2023-05-01T03:39:15;3.17;;;2.67;;
74241;SDS011;62599;49.146;10.426;2023-05-01T03:41:40;1.60;;;1.50;;
74241;SDS011;62599;49.146;10.426;2023-05-01T03:44:05;4.23;;;2.97;;
74241;SDS011;62599;49.146;10.426;2023-05-01T03:46:31;2.07;;;1.87;;
74241;SDS011;62599;49.146;10.426;2023-05-01T03:48:56;1.80;;;1.25;;
74241;SDS011;62599;49.146;10.426;2023-05-01T03:51:21;3.30;;;2.00;;
74241;SDS011;62599;49.146;10.426;2023-05-01T03:53:47;2.17;;;1.97;;
74241;SDS011;62599;49.146;10.426;2023-05-01T03:56:12;3.30;;;1.60;;
74241;SDS011;62599;49.146;10.426;2023-05-01T03:58:37;3.25;;;2.63;;
74241;SDS011;62599;49.146;10.426;2023-05-01T04:01:03;3.50;;;3.00;;
74241;SDS011;62599;49.146;10.426;2023-05-01T04:03:28;2.28;;;1.55;;
74241;SDS011;62599;49.146;10.426;2023-05-01T04:05:54;7.00;;;2.20;;
74241;SDS011;62599;49.146;10.426;2023-05-01T04:08:19;4.25;;;2.67;;
74241;SDS011;62599;49.146;10.426;2023-05-01T04:10:45;3.70;;;2.40;;
74241;SDS011;62599;49.146;10.426;2023-05-01T04:13:10;3.25;;;1.55;;
74241;SDS011;62599;49.146;10.426;2023-05-01T04:15:36;5.53;;;2.60;;
74241;SDS011;62599;49.146;10.426;2023-05-01T04:18:02;6.82;;;2.10;;
74241;SDS011;62599;49.146;10.426;2023-05-01T04:20:28;2.55;;;1.63;;
74241;SDS011;62599;49.146;10.426;2023-05-01T04:22:57;3.47;;;2.22;;
74241;SDS011;62599;49.146;10.426;2023-05-01T04:25:22;2.90;;;2.05;;
74241;SDS011;62599;49.146;10.426;2023-05-01T04:27:47;4.70;;;2.53;;
74241;SDS011;62599;49.146;10.426;2023-05-01T04:30:13;2.80;;;1.63;;
74241;SDS011;62599;49.146;10.426;2023-05-01T04:32:38;4.07;;;2.63;;
74241;SDS011;62599;49.146;10.426;2023-05-01T04:35:04;5.22;;;2.72;;
74241;SDS011;62599;49.146;10.426;2023-05-01T04:37:30;3.85;;;3.30;;
74241;SDS011;62599;49.146;10.426;2023-05-01T04:39:55;3.00;;;1.42;;
74241;SDS011;62599;49.146;10.426;2023-05-01T04:42:20;3.37;;;2.37;;
74241;SDS011;62599;49.146;10.426;2023-05-01T04:44:46;3.80;;;2.63;;
74241;SDS011;62599;49.146;10.426;2023-05-01T04:47:12;2.97;;;2.45;;
74241;SDS011;62599;49.146;10.426;2023-05-01T04:49:37;3.85;;;2.45;;
74241;SDS011;62599;49.146;10.426;2023-05-01T04:52:03;3.00;;;2.20;;
74241;SDS011;62599;49.146;10.426;2023-05-01T04:54:28;4.75;;;2.63;;
74241;SDS011;62599;49.146;10.426;2023-05-01T04:56:56;5.00;;;2.90;;
74241;SDS011;62599;49.146;10.426;2023-05-01T04:59:23;5.43;;;2.33;;
74241;SDS011;62599;49.146;10.426;2023-05-01T05:01:48;3.90;;;2.50;;
74241;SDS011;62599;49.146;10.426;2023-05-01T05:04:14;3.75;;;2.42;;
74241;SDS011;62599;49.146;10.426;2023-05-01T05:06:40;1.85;;;1.20;;
74241;SDS011;62599;49.146;10.426;2023-05-01T05:09:05;4.13;;;2.47;;
74241;SDS011;62599;49.146;10.426;2023-05-01T05:11:30;7.95;;;4.03;;
74241;SDS011;62599;49.146;10.426;2023-05-01T05:13:56;3.60;;;2.90;;
74241;SDS011;62599;49.146;10.426;2023-05-01T05:16:21;4.73;;;2.53;;
74241;SDS011;62599;49.146;10.426;2023-05-01T05:18:46;5.03;;;2.37;;
74241;SDS011;62599;49.146;10.426;2023-05-01T05:21:12;3.35;;;2.80;;
74241;SDS011;62599;49.146;10.426;2023-05-01T05:23:37;4.45;;;2.60;;
74241;SDS011;62599;49.146;10.426;2023-05-01T05:26:03;3.55;;;2.67;;
74241;SDS011;62599;49.146;10.426;2023-05-01T05:28:30;2.97;;;2.47;;
74241;SDS011;62599;49.146;10.426;2023-05-01T05:30:55;5.75;;;2.35;;
74241;SDS011;62599;49.146;10.426;2023-05-01T05:33:21;5.30;;;3.05;;
74241;SDS011;62599;49.146;10.426;2023-05-01T05:35:49;5.50;;;3.70;;
74241;SDS011;62599;49.146;10.426;2023-05-01T05:38:15;7.88;;;3.38;;
74241;SDS011;62599;49.146;10.426;2023-05-01T05:40:40;4.07;;;3.10;;
74241;SDS011;62599;49.146;10.426;2023-05-01T05:43:05;6.88;;;3.35;;
74241;SDS011;62599;49.146;10.426;2023-05-01T05:45:34;4.57;;;2.65;;
74241;SDS011;62599;49.146;10.426;2023-05-01T05:48:00;7.90;;;2.92;;
74241;SDS011;62599;49.146;10.426;2023-05-01T05:50:25;4.53;;;2.83;;
74241;SDS011;62599;49.146;10.426;2023-05-01T05:52:51;6.03;;;4.00;;
74241;SDS011;62599;49.146;10.426;2023-05-01T05:55:17;9.77;;;3.67;;
74241;SDS011;62599;49.146;10.426;2023-05-01T05:57:42;6.13;;;3.45;;
74241;SDS011;62599;49.146;10.426;2023-05-01T06:00:08;4.47;;;2.72;;
74241;SDS011;62599;49.146;10.426;2023-05-01T06:02:34;3.95;;;2.50;;
74241;SDS011;62599;49.146;10.426;2023-05-01T06:05:00;3.60;;;3.03;;
74241;SDS011;62599;49.146;10.426;2023-05-01T06:10:46;14.73;;;3.42;;
74241;SDS011;62599;49.146;10.426;2023-05-01T06:13:11;11.30;;;2.38;;
74241;SDS011;62599;49.146;10.426;2023-05-01T06:15:37;6.43;;;3.67;;
74241;SDS011;62599;49.146;10.426;2023-05-01T06:18:03;4.28;;;2.75;;
74241;SDS011;62599;49.146;10.426;2023-05-01T06:20:30;3.92;;;2.35;;
74241;SDS011;62599;49.146;10.426;2023-05-01T06:22:56;3.92;;;3.22;;
74241;SDS011;62599;49.146;10.426;2023-05-01T06:25:21;7.85;;;3.22;;
74241;SDS011;62599;49.146;10.426;2023-05-01T06:27:48;8.23;;;3.47;;
74241;SDS011;62599;49.146;10.426;2023-05-01T06:30:14;5.18;;;2.85;;
74241;SDS011;62599;49.146;10.426;2023-05-01T06:32:40;7.50;;;3.53;;
74241;SDS011;62599;49.146;10.426;2023-05-01T06:35:07;4.15;;;3.03;;
74241;SDS011;62599;49.146;10.426;2023-05-01T06:37:33;7.20;;;2.80;;
74241;SDS011;62599;49.146;10.426;2023-05-01T06:39:58;6.67;;;3.37;;
74241;SDS011;62599;49.146;10.426;2023-05-01T06:42:24;5.83;;;3.40;;
74241;SDS011;62599;49.146;10.426;2023-05-01T06:44:49;4.60;;;3.53;;
74241;SDS011;62599;49.146;10.426;2023-05-01T06:47:14;4.40;;;2.40;;
74241;SDS011;62599;49.146;10.426;2023-05-01T06:49:40;5.97;;;2.50;;
74241;SDS011;62599;49.146;10.426;2023-05-01T06:52:07;5.18;;;2.92;;
74241;SDS011;62599;49.146;10.426;2023-05-01T06:54:35;7.37;;;3.87;;
74241;SDS011;62599;49.146;10.426;2023-05-01T06:57:00;6.07;;;3.05;;
74241;SDS011;62599;49.146;10.426;2023-05-01T06:59:26;5.30;;;4.10;;
74241;SDS011;62599;49.146;10.426;2023-05-01T07:01:51;3.70;;;2.87;;
74241;SDS011;62599;49.146;10.426;2023-05-01T07:04:17;6.35;;;3.33;;
74241;SDS011;62599;49.146;10.426;2023-05-01T07:06:42;7.57;;;3.85;;
74241;SDS011;62599;49.146;10.426;2023-05-01T07:09:10;5.28;;;3.38;;
74241;SDS011;62599;49.146;10.426;2023-05-01T07:11:36;9.35;;;3.53;;
74241;SDS011;62599;49.146;10.426;2023-05-01T07:14:02;5.15;;;3.30;;
74241;SDS011;62599;49.146;10.426;2023-05-01T07:16:27;7.88;;;4.35;;
74241;SDS011;62599;49.146;10.426;2023-05-01T07:18:53;4.35;;;3.25;;
74241;SDS011;62599;49.146;10.426;2023-05-01T07:21:18;5.68;;;3.50;;
74241;SDS011;62599;49.146;10.426;2023-05-01T07:23:44;5.37;;;3.20;;
74241;SDS011;62599;49.146;10.426;2023-05-01T07:26:09;13.23;;;4.03;;
74241;SDS011;62599;49.146;10.426;2023-05-01T07:28:34;7.03;;;4.07;;
74241;SDS011;62599;49.146;10.426;2023-05-01T07:31:00;8.05;;;3.47;;
74241;SDS011;62599;49.146;10.426;2023-05-01T07:33:25;9.63;;;4.28;;
74241;SDS011;62599;49.146;10.426;2023-05-01T07:35:51;4.93;;;2.75;;
74241;SDS011;62599;49.146;10.426;2023-05-01T07:38:17;6.25;;;3.35;;
74241;SDS011;62599;49.146;10.426;2023-05-01T07:40:43;9.85;;;3.90;;
74241;SDS011;62599;49.146;10.426;2023-05-01T07:43:08;5.47;;;3.80;;
74241;SDS011;62599;49.146;10.426;2023-05-01T07:45:39;5.85;;;3.45;;
74241;SDS011;62599;49.146;10.426;2023-05-01T07:48:18;4.90;;;3.55;;
74241;SDS011;62599;49.146;10.426;2023-05-01T07:50:43;8.97;;;4.20;;
74241;SDS011;62599;49.146;10.426;2023-05-01T07:53:09;7.40;;;4.17;;
74241;SDS011;62599;49.146;10.426;2023-05-01T07:55:34;7.00;;;4.53;;
74241;SDS011;62599;49.146;10.426;2023-05-01T07:57:59;5.47;;;3.40;;
74241;SDS011;62599;49.146;10.426;2023-05-01T08:00:25;5.63;;;3.20;;
74241;SDS011;62599;49.146;10.426;2023-05-01T08:02:50;5.55;;;4.50;;
74241;SDS011;62599;49.146;10.426;2023-05-01T08:05:16;6.50;;;4.60;;
74241;SDS011;62599;49.146;10.426;2023-05-01T08:07:41;12.57;;;3.70;;
74241;SDS011;62599;49.146;10.426;2023-05-01T08:10:07;6.15;;;3.80;;
74241;SDS011;62599;49.146;10.426;2023-05-01T08:12:32;10.88;;;4.47;;
74241;SDS011;62599;49.146;10.426;2023-05-01T08:14:58;8.47;;;4.10;;
74241;SDS011;62599;49.146;10.426;2023-05-01T08:17:23;10.07;;;4.53;;
74241;SDS011;62599;49.146;10.426;2023-05-01T08:19:51;9.57;;;4.47;;
74241;SDS011;62599;49.146;10.426;2023-05-01T08:22:20;7.50;;;3.95;;
74241;SDS011;62599;49.146;10.426;2023-05-01T08:24:46;7.55;;;4.50;;
74241;SDS011;62599;49.146;10.426;2023-05-01T08:27:11;7.10;;;4.47;;
74241;SDS011;62599;49.146;10.426;2023-05-01T08:29:36;7.75;;;4.45;;
74241;SDS011;62599;49.146;10.426;2023-05-01T08:32:02;9.00;;;4.88;;
74241;SDS011;62599;49.146;10.426;2023-05-01T08:34:30;7.45;;;4.60;;
74241;SDS011;62599;49.146;10.426;2023-05-01T08:36:57;6.22;;;4.38;;
74241;SDS011;62599;49.146;10.426;2023-05-01T08:39:23;6.18;;;3.95;;
74241;SDS011;62599;49.146;10.426;2023-05-01T08:41:48;5.88;;;4.55;;
74241;SDS011;62599;49.146;10.426;2023-05-01T08:44:18;12.07;;;5.57;;
74241;SDS011;62599;49.146;10.426;2023-05-01T08:46:47;7.68;;;4.03;;
74241;SDS011;62599;49.146;10.426;2023-05-01T08:49:17;6.53;;;4.15;;
74241;SDS011;62599;49.146;10.426;2023-05-01T08:51:45;5.75;;;3.83;;
74241;SDS011;62599;49.146;10.426;2023-05-01T08:54:16;7.03;;;4.38;;
74241;SDS011;62599;49.146;10.426;2023-05-01T08:56:43;8.15;;;4.10;;
74241;SDS011;62599;49.146;10.426;2023-05-01T08:59:11;8.60;;;4.10;;
74241;SDS011;62599;49.146;10.426;2023-05-01T09:01:38;5.85;;;4.30;;
74241;SDS011;62599;49.146;10.426;2023-05-01T09:04:05;6.82;;;4.28;;
74241;SDS011;62599;49.146;10.426;2023-05-01T09:06:31;6.68;;;4.15;;
74241;SDS011;62599;49.146;10.426;2023-05-01T09:08:57;10.35;;;4.35;;
74241;SDS011;62599;49.146;10.426;2023-05-01T09:11:23;6.65;;;3.40;;
74241;SDS011;62599;49.146;10.426;2023-05-01T09:13:50;6.60;;;4.65;;
74241;SDS011;62599;49.146;10.426;2023-05-01T09:16:17;7.22;;;4.05;;
74241;SDS011;62599;49.146;10.426;2023-05-01T09:18:45;5.25;;;3.75;;
74241;SDS011;62599;49.146;10.426;2023-05-01T09:21:17;8.52;;;4.53;;
74241;SDS011;62599;49.146;10.426;2023-05-01T09:23:48;7.05;;;4.95;;
74241;SDS011;62599;49.146;10.426;2023-05-01T09:26:17;9.70;;;5.30;;
74241;SDS011;62599;49.146;10.426;2023-05-01T09:28:44;13.35;;;5.70;;
74241;SDS011;62599;49.146;10.426;2023-05-01T09:31:21;6.55;;;4.22;;
74241;SDS011;62599;49.146;10.426;2023-05-01T09:34:02;7.45;;;4.57;;
74241;SDS011;62599;49.146;10.426;2023-05-01T09:36:29;6.30;;;3.97;;
74241;SDS011;62599;49.146;10.426;2023-05-01T09:39:00;9.65;;;4.93;;
74241;SDS011;62599;49.146;10.426;2023-05-01T09:41:26;7.75;;;4.18;;
74241;SDS011;62599;49.146;10.426;2023-05-01T09:43:53;7.70;;;4.78;;
74241;SDS011;62599;49.146;10.426;2023-05-01T09:46:20;5.60;;;3.80;;
74241;SDS011;62599;49.146;10.426;2023-05-01T09:48:54;7.50;;;4.28;;
74241;SDS011;62599;49.146;10.426;2023-05-01T09:51:23;7.47;;;4.55;;
74241;SDS011;62599;49.146;10.426;2023-05-01T09:53:56;8.25;;;3.92;;
74241;SDS011;62599;49.146;10.426;2023-05-01T09:56:28;9.05;;;4.70;;
74241;SDS011;62599;49.146;10.426;2023-05-01T09:58:56;8.23;;;5.07;;
74241;SDS011;62599;49.146;10.426;2023-05-01T10:01:40;6.60;;;4.38;;
74241;SDS011;62599;49.146;10.426;2023-05-01T10:04:07;7.90;;;3.95;;
74241;SDS011;62599;49.146;10.426;2023-05-01T10:06:37;6.45;;;4.28;;
74241;SDS011;62599;49.146;10.426;2023-05-01T10:09:03;6.55;;;4.55;;
74241;SDS011;62599;49.146;10.426;2023-05-01T10:11:53;6.38;;;4.57;;
74241;SDS011;62599;49.146;10.426;2023-05-01T10:14:18;7.22;;;4.22;;
74241;SDS011;62599;49.146;10.426;2023-05-01T10:16:44;6.78;;;5.18;;
74241;SDS011;62599;49.146;10.426;2023-05-01T10:19:10;5.28;;;4.55;;
74241;SDS011;62599;49.146;10.426;2023-05-01T10:21:36;6.18;;;4.32;;
74241;SDS011;62599;49.146;10.426;2023-05-01T10:24:02;7.32;;;4.70;;
74241;SDS011;62599;49.146;10.426;2023-05-01T10:26:28;5.70;;;3.97;;
74241;SDS011;62599;49.146;10.426;2023-05-01T10:28:54;6.85;;;4.65;;
74241;SDS011;62599;49.146;10.426;2023-05-01T10:31:22;6.10;;;4.72;;
74241;SDS011;62599;49.146;10.426;2023-05-01T10:33:48;6.90;;;4.60;;
74241;SDS011;62599;49.146;10.426;2023-05-01T10:36:19;6.63;;;4.75;;
74241;SDS011;62599;49.146;10.426;2023-05-01T10:38:47;7.97;;;4.82;;
74241;SDS011;62599;49.146;10.426;2023-05-01T10:41:15;7.18;;;4.13;;
74241;SDS011;62599;49.146;10.426;2023-05-01T10:43:41;10.55;;;3.67;;
74241;SDS011;62599;49.146;10.426;2023-05-01T10:51:11;8.07;;;4.67;;
74241;SDS011;62599;49.146;10.426;2023-05-01T10:53:41;6.97;;;4.82;;
74241;SDS011;62599;49.146;10.426;2023-05-01T11:09:36;5.63;;;4.38;;
74241;SDS011;62599;49.146;10.426;2023-05-01T11:15:00;7.60;;;4.82;;
74241;SDS011;62599;49.146;10.426;2023-05-01T11:20:10;6.63;;;4.45;;
74241;SDS011;62599;49.146;10.426;2023-05-01T11:22:43;11.38;;;4.72;;
74241;SDS011;62599;49.146;10.426;2023-05-01T11:25:21;5.70;;;4.30;;
74241;SDS011;62599;49.146;10.426;2023-05-01T11:27:49;7.38;;;4.68;;
74241;SDS011;62599;49.146;10.426;2023-05-01T11:30:16;6.00;;;3.78;;
74241;SDS011;62599;49.146;10.426;2023-05-01T11:32:42;6.70;;;4.57;;
74241;SDS011;62599;49.146;10.426;2023-05-01T11:37:41;6.68;;;4.60;;
74241;SDS011;62599;49.146;10.426;2023-05-01T11:40:17;5.35;;;3.97;;
74241;SDS011;62599;49.146;10.426;2023-05-01T11:42:50;9.18;;;5.38;;
74241;SDS011;62599;49.146;10.426;2023-05-01T11:45:24;6.95;;;4.70;;
74241;SDS011;62599;49.146;10.426;2023-05-01T11:47:49;5.38;;;4.15;;
74241;SDS011;62599;49.146;10.426;2023-05-01T11:50:15;6.82;;;4.55;;
74241;SDS011;62599;49.146;10.426;2023-05-01T11:52:47;6.20;;;4.78;;
74241;SDS011;62599;49.146;10.426;2023-05-01T11:55:19;7.78;;;4.50;;
74241;SDS011;62599;49.146;10.426;2023-05-01T11:57:52;6.40;;;4.72;;
74241;SDS011;62599;49.146;10.426;2023-05-01T12:00:30;6.18;;;4.53;;
74241;SDS011;62599;49.146;10.426;2023-05-01T12:03:02;5.63;;;4.57;;
74241;SDS011;62599;49.146;10.426;2023-05-01T12:05:39;5.10;;;4.22;;
74241;SDS011;62599;49.146;10.426;2023-05-01T12:08:07;8.02;;;4.78;;
74241;SDS011;62599;49.146;10.426;2023-05-01T12:10:34;7.70;;;4.85;;
74241;SDS011;62599;49.146;10.426;2023-05-01T12:13:03;6.35;;;4.22;;
74241;SDS011;62599;49.146;10.426;2023-05-01T12:15:30;7.25;;;4.25;;
74241;SDS011;62599;49.146;10.426;2023-05-01T12:17:58;7.10;;;4.53;;
74241;SDS011;62599;49.146;10.426;2023-05-01T12:20:44;6.22;;;3.63;;
74241;SDS011;62599;49.146;10.426;2023-05-01T12:23:12;5.93;;;3.78;;
74241;SDS011;62599;49.146;10.426;2023-05-01T12:25:40;6.93;;;4.25;;
74241;SDS011;62599;49.146;10.426;2023-05-01T12:28:11;5.40;;;3.42;;
74241;SDS011;62599;49.146;10.426;2023-05-01T12:30:42;9.50;;;3.58;;
74241;SDS011;62599;49.146;10.426;2023-05-01T12:33:10;6.40;;;4.30;;
74241;SDS011;62599;49.146;10.426;2023-05-01T12:35:38;4.97;;;3.38;;
74241;SDS011;62599;49.146;10.426;2023-05-01T12:38:17;6.60;;;3.67;;
74241;SDS011;62599;49.146;10.426;2023-05-01T12:40:55;5.88;;;3.97;;
74241;SDS011;62599;49.146;10.426;2023-05-01T12:43:33;5.07;;;3.35;;
74241;SDS011;62599;49.146;10.426;2023-05-01T12:46:01;5.65;;;3.55;;
74241;SDS011;62599;49.146;10.426;2023-05-01T12:48:28;6.43;;;3.53;;
74241;SDS011;62599;49.146;10.426;2023-05-01T12:50:54;5.70;;;3.45;;
74241;SDS011;62599;49.146;10.426;2023-05-01T12:53:21;6.32;;;3.75;;
74241;SDS011;62599;49.146;10.426;2023-05-01T12:55:49;5.05;;;3.78;;
74241;SDS011;62599;49.146;10.426;2023-05-01T12:58:15;12.98;;;6.47;;
74241;SDS011;62599;49.146;10.426;2023-05-01T13:00:42;13.98;;;5.95;;
74241;SDS011;62599;49.146;10.426;2023-05-01T13:03:27;5.97;;;4.30;;
74241;SDS011;62599;49.146;10.426;2023-05-01T13:05:57;7.22;;;4.55;;
74241;SDS011;62599;49.146;10.426;2023-05-01T13:08:36;8.52;;;4.85;;
74241;SDS011;62599;49.146;10.426;2023-05-01T13:11:09;7.18;;;4.22;;
74241;SDS011;62599;49.146;10.426;2023-05-01T13:13:40;5.18;;;3.33;;
74241;SDS011;62599;49.146;10.426;2023-05-01T13:16:13;6.68;;;3.85;;
74241;SDS011;62599;49.146;10.426;2023-05-01T13:18:47;5.35;;;3.85;;
74241;SDS011;62599;49.146;10.426;2023-05-01T13:21:20;5.38;;;3.80;;
74241;SDS011;62599;49.146;10.426;2023-05-01T13:23:57;7.28;;;3.90;;
74241;SDS011;62599;49.146;10.426;2023-05-01T13:26:33;7.80;;;4.40;;
74241;SDS011;62599;49.146;10.426;2023-05-01T13:29:00;5.80;;;3.67;;
74241;SDS011;62599;49.146;10.426;2023-05-01T13:31:27;8.75;;;4.72;;
74241;SDS011;62599;49.146;10.426;2023-05-01T13:33:53;4.63;;;3.60;;
74241;SDS011;62599;49.146;10.426;2023-05-01T13:36:20;6.80;;;4.90;;
74241;SDS011;62599;49.146;10.426;2023-05-01T13:38:47;5.85;;;4.10;;
74241;SDS011;62599;49.146;10.426;2023-05-01T13:41:24;6.05;;;4.60;;
74241;SDS011;62599;49.146;10.426;2023-05-01T13:43:51;5.93;;;4.63;;
74241;SDS011;62599;49.146;10.426;2023-05-01T13:46:18;4.90;;;2.95;;
74241;SDS011;62599;49.146;10.426;2023-05-01T13:48:45;6.18;;;3.45;;
74241;SDS011;62599;49.146;10.426;2023-05-01T13:51:12;4.63;;;3.40;;
74241;SDS011;62599;49.146;10.426;2023-05-01T13:53:39;4.53;;;3.13;;
74241;SDS011;62599;49.146;10.426;2023-05-01T13:56:05;4.63;;;3.03;;
74241;SDS011;62599;49.146;10.426;2023-05-01T13:58:33;5.22;;;2.70;;
74241;SDS011;62599;49.146;10.426;2023-05-01T14:00:59;6.55;;;3.47;;
74241;SDS011;62599;49.146;10.426;2023-05-01T14:03:25;5.97;;;3.38;;
74241;SDS011;62599;49.146;10.426;2023-05-01T14:05:51;6.53;;;3.17;;
74241;SDS011;62599;49.146;10.426;2023-05-01T14:08:19;5.97;;;3.85;;
74241;SDS011;62599;49.146;10.426;2023-05-01T14:10:46;4.30;;;2.65;;
74241;SDS011;62599;49.146;10.426;2023-05-01T14:13:12;5.18;;;3.20;;
74241;SDS011;62599;49.146;10.426;2023-05-01T14:15:41;4.15;;;3.50;;
74241;SDS011;62599;49.146;10.426;2023-05-01T14:18:07;4.47;;;3.97;;
74241;SDS011;62599;49.146;10.426;2023-05-01T14:20:44;5.68;;;3.83;;
74241;SDS011;62599;49.146;10.426;2023-05-01T14:23:16;3.92;;;2.95;;
74241;SDS011;62599;49.146;10.426;2023-05-01T14:25:44;5.82;;;2.90;;
74241;SDS011;62599;49.146;10.426;2023-05-01T14:28:12;5.93;;;4.03;;
74241;SDS011;62599;49.146;10.426;2023-05-01T14:30:38;7.47;;;4.13;;
74241;SDS011;62599;49.146;10.426;2023-05-01T14:33:08;7.63;;;4.90;;
74241;SDS011;62599;49.146;10.426;2023-05-01T14:35:35;5.93;;;4.03;;
74241;SDS011;62599;49.146;10.426;2023-05-01T14:38:11;6.15;;;4.20;;
74241;SDS011;62599;49.146;10.426;2023-05-01T14:40:41;5.60;;;4.60;;
74241;SDS011;62599;49.146;10.426;2023-05-01T14:43:26;4.38;;;2.80;;
74241;SDS011;62599;49.146;10.426;2023-05-01T14:45:52;8.25;;;3.67;;
74241;SDS011;62599;49.146;10.426;2023-05-01T14:48:22;4.97;;;2.83;;
74241;SDS011;62599;49.146;10.426;2023-05-01T14:50:49;5.18;;;3.60;;
74241;SDS011;62599;49.146;10.426;2023-05-01T14:53:15;4.78;;;3.15;;
74241;SDS011;62599;49.146;10.426;2023-05-01T14:55:48;4.53;;;2.72;;
74241;SDS011;62599;49.146;10.426;2023-05-01T14:58:15;3.90;;;2.80;;
74241;SDS011;62599;49.146;10.426;2023-05-01T15:00:40;9.93;;;5.27;;
74241;SDS011;62599;49.146;10.426;2023-05-01T15:03:05;3.90;;;3.13;;
74241;SDS011;62599;49.146;10.426;2023-05-01T15:05:31;6.75;;;3.17;;
74241;SDS011;62599;49.146;10.426;2023-05-01T15:07:57;4.40;;;2.80;;
74241;SDS011;62599;49.146;10.426;2023-05-01T15:10:25;6.00;;;4.55;;
74241;SDS011;62599;49.146;10.426;2023-05-01T15:12:52;4.90;;;2.90;;
74241;SDS011;62599;49.146;10.426;2023-05-01T15:15:18;5.37;;;2.17;;
74241;SDS011;62599;49.146;10.426;2023-05-01T15:17:43;4.73;;;2.60;;
74241;SDS011;62599;49.146;10.426;2023-05-01T15:20:09;4.60;;;2.65;;
74241;SDS011;62599;49.146;10.426;2023-05-01T15:22:35;3.85;;;2.83;;